Time;durP1;ratioP1;P1;durP2;ratioP2;P2;SDS_P1;SDS_P2;PMS_P1;PMS_P2;Temp;Humidity;BMP_temperature;BMP_pressure;BME280_temperature;BME280_humidity;BME280_pressure;Samples;Min_cycle;Max_cycle;Signal;HPM_P1;HPM_P2
2023/05/20 00:02:10;;;;;;;13.65;6.75;;;17.70;68.30;;;;;;5984398;29;20041;-75
2023/05/20 00:05:20;;;;;;;9.93;6.15;;;17.70;68.40;;;;;;5997767;29;20838;-74
2023/05/20 00:08:25;;;;;;;9.80;5.72;;;17.70;68.40;;;;;;5982079;29;20042;-77
2023/05/20 00:11:33;;;;;;;12.02;5.40;;;17.70;68.50;;;;;;5983875;29;20031;-75
2023/05/20 00:14:40;;;;;;;9.85;6.05;;;17.70;68.50;;;;;;5986319;29;20061;-74
2023/05/20 00:17:45;;;;;;;13.50;6.22;;;17.70;68.50;;;;;;5986425;29;20110;-74
2023/05/20 00:20:53;;;;;;;10.95;6.05;;;17.60;68.60;;;;;;5999491;29;20046;-75
2023/05/20 00:24:02;;;;;;;11.43;5.85;;;17.50;68.80;;;;;;5985978;29;20129;-74
2023/05/20 00:27:14;;;;;;;11.55;5.57;;;17.50;68.90;;;;;;5969626;29;20035;-74
2023/05/20 00:30:22;;;;;;;11.85;5.78;;;17.50;69.00;;;;;;5976008;29;20039;-75
2023/05/20 00:33:30;;;;;;;11.40;5.78;;;17.40;69.10;;;;;;5962409;29;20031;-74
2023/05/20 00:36:37;;;;;;;10.38;5.47;;;17.40;69.20;;;;;;5973295;29;20150;-75
2023/05/20 00:39:45;;;;;;;12.32;6.13;;;17.40;69.20;;;;;;5987272;29;20050;-74
2023/05/20 00:42:54;;;;;;;16.88;5.60;;;17.30;69.30;;;;;;5984980;29;20113;-74
2023/05/20 00:46:11;;;;;;;15.65;6.15;;;17.30;69.40;;;;;;5975300;29;20069;-75
2023/05/20 00:49:22;;;;;;;13.73;5.75;;;17.20;69.60;;;;;;5970598;29;20483;-75
2023/05/20 00:52:35;;;;;;;16.88;7.07;;;17.20;69.70;;;;;;5981811;29;20071;-76
2023/05/20 00:55:51;;;;;;;22.33;7.40;;;17.20;69.80;;;;;;5968987;29;20037;-76
2023/05/20 00:58:57;;;;;;;16.25;7.43;;;17.10;69.80;;;;;;5978106;29;20061;-73
2023/05/20 01:02:10;;;;;;;15.13;7.88;;;17.10;69.90;;;;;;5961372;29;20043;-74
2023/05/20 01:05:21;;;;;;;17.95;8.70;;;17.10;70.00;;;;;;5974481;29;20488;-74
2023/05/20 01:08:31;;;;;;;15.88;7.20;;;17.10;70.10;;;;;;5959063;29;20086;-74
2023/05/20 01:11:54;;;;;;;15.68;7.15;;;17.10;70.20;;;;;;5959837;29;20031;-74
2023/05/20 01:15:09;;;;;;;10.52;6.40;;;17.00;70.20;;;;;;5961410;29;20095;-74
2023/05/20 01:18:19;;;;;;;18.65;7.00;;;17.10;70.40;;;;;;5964727;29;20050;-73
2023/05/20 01:21:26;;;;;;;18.20;7.20;;;17.10;70.40;;;;;;5982464;29;20034;-75
2023/05/20 01:24:35;;;;;;;11.70;7.15;;;17.10;70.50;;;;;;5959812;29;20122;-75
2023/05/20 01:27:41;;;;;;;16.50;7.88;;;17.10;70.60;;;;;;5959509;29;20046;-74
2023/05/20 01:30:57;;;;;;;11.38;7.22;;;17.10;70.60;;;;;;5972738;29;20034;-74
2023/05/20 01:34:07;;;;;;;13.68;7.53;;;17.10;70.50;;;;;;5981386;29;20121;-76
2023/05/20 01:37:17;;;;;;;14.05;7.68;;;17.10;70.60;;;;;;5959199;29;20066;-74
2023/05/20 01:40:27;;;;;;;14.98;6.82;;;17.10;70.60;;;;;;5943750;29;20054;-74
2023/05/20 01:43:36;;;;;;;17.70;6.90;;;17.10;70.50;;;;;;5958053;29;20043;-74
2023/05/20 01:46:53;;;;;;;13.27;7.45;;;17.10;70.50;;;;;;5957692;29;20035;-74
2023/05/20 01:50:02;;;;;;;19.67;7.20;;;17.10;70.60;;;;;;5978226;29;20112;-76
2023/05/20 01:53:12;;;;;;;12.60;7.50;;;17.10;70.60;;;;;;5980235;29;20038;-74
2023/05/20 01:56:21;;;;;;;15.60;7.63;;;17.10;70.70;;;;;;5983997;29;20071;-75
2023/05/20 01:59:30;;;;;;;13.48;7.82;;;17.00;70.60;;;;;;5985570;29;20122;-76
2023/05/20 02:02:37;;;;;;;12.43;7.00;;;17.00;70.60;;;;;;5985225;29;20114;-76
2023/05/20 02:05:47;;;;;;;11.90;7.22;;;17.00;70.70;;;;;;5985782;29;20038;-76
2023/05/20 02:08:56;;;;;;;11.65;6.82;;;17.00;70.70;;;;;;5998812;29;20538;-74
2023/05/20 02:12:03;;;;;;;11.20;6.95;;;17.00;70.80;;;;;;5999749;29;20100;-74
2023/05/20 02:15:13;;;;;;;10.10;5.93;;;17.00;70.60;;;;;;5985406;29;20396;-76
2023/05/20 02:18:21;;;;;;;11.02;5.97;;;17.00;70.60;;;;;;5998226;29;20096;-74
2023/05/20 02:21:31;;;;;;;12.70;7.00;;;17.00;70.70;;;;;;5998807;29;20049;-76
2023/05/20 02:24:42;;;;;;;17.75;6.85;;;16.90;70.70;;;;;;5983904;29;20053;-76
2023/05/20 02:27:48;;;;;;;15.13;7.28;;;16.90;71.50;;;;;;5983694;29;20121;-75
2023/05/20 02:30:53;;;;;;;12.70;6.78;;;16.90;70.70;;;;;;5983696;29;20045;-75
2023/05/20 02:34:03;;;;;;;13.93;7.13;;;17.00;70.70;;;;;;5983861;29;20038;-74
2023/05/20 02:37:09;;;;;;;12.65;7.40;;;16.90;70.60;;;;;;5983753;29;20418;-74
2023/05/20 02:40:19;;;;;;;13.55;7.80;;;17.00;70.70;;;;;;5985173;29;20034;-76
2023/05/20 02:43:30;;;;;;;13.70;7.47;;;17.00;70.60;;;;;;5985012;29;20041;-75
2023/05/20 02:46:38;;;;;;;16.98;7.22;;;17.00;70.50;;;;;;5989989;29;20039;-72
2023/05/20 02:49:43;;;;;;;15.18;7.05;;;17.00;70.40;;;;;;5946006;29;20053;-75
2023/05/20 02:52:48;;;;;;;16.75;7.63;;;16.90;70.40;;;;;;5973409;29;20134;-74
2023/05/20 02:56:00;;;;;;;12.27;7.03;;;17.00;70.60;;;;;;5989595;29;20045;-75
2023/05/20 02:59:09;;;;;;;9.73;6.65;;;17.00;70.50;;;;;;5960523;29;20045;-75
2023/05/20 03:02:22;;;;;;;12.50;6.53;;;17.10;70.40;;;;;;5945656;29;20043;-74
2023/05/20 03:05:31;;;;;;;10.88;6.82;;;17.10;71.00;;;;;;5961521;29;20173;-75
2023/05/20 03:08:42;;;;;;;10.45;6.05;;;17.10;70.10;;;;;;5961693;29;20058;-75
2023/05/20 03:11:49;;;;;;;9.85;6.80;;;17.10;70.10;;;;;;5974149;29;20038;-74
2023/05/20 03:14:59;;;;;;;17.30;6.63;;;17.10;70.00;;;;;;5984187;29;20053;-77
2023/05/20 03:18:09;;;;;;;11.55;6.78;;;17.10;70.10;;;;;;5983797;29;20314;-74
2023/05/20 03:21:18;;;;;;;11.25;6.30;;;17.10;70.80;;;;;;5982130;29;20034;-75
2023/05/20 03:24:27;;;;;;;15.23;6.05;;;17.10;70.00;;;;;;5981825;29;20034;-75
2023/05/20 03:27:35;;;;;;;10.25;6.38;;;17.00;70.00;;;;;;5983671;29;20042;-73
2023/05/20 03:30:43;;;;;;;11.15;5.95;;;17.10;70.00;;;;;;5982350;29;20105;-74
2023/05/20 03:33:48;;;;;;;12.15;6.38;;;17.10;70.00;;;;;;5997172;29;20039;-73
2023/05/20 03:36:58;;;;;;;14.38;6.38;;;17.00;69.90;;;;;;5982733;29;20065;-73
2023/05/20 03:40:13;;;;;;;10.25;5.95;;;17.00;69.90;;;;;;5983493;29;20042;-74
2023/05/20 03:43:22;;;;;;;10.43;6.55;;;17.10;70.00;;;;;;5983630;29;20103;-75
2023/05/20 03:46:33;;;;;;;11.80;5.97;;;17.10;69.90;;;;;;5986227;29;20062;-74
2023/05/20 03:49:40;;;;;;;15.15;6.28;;;17.10;69.90;;;;;;5986155;29;20038;-75
2023/05/20 03:52:47;;;;;;;10.75;6.10;;;17.10;69.90;;;;;;6031706;29;20052;-74
2023/05/20 03:55:58;;;;;;;14.00;6.32;;;17.10;69.80;;;;;;6042037;29;20033;-75
2023/05/20 03:59:06;;;;;;;14.25;6.93;;;17.10;69.70;;;;;;6014851;29;20114;-75
2023/05/20 04:02:15;;;;;;;10.98;5.95;;;17.10;69.70;;;;;;6007664;29;20037;-74
2023/05/20 04:05:25;;;;;;;9.65;6.00;;;17.10;69.80;;;;;;6012356;29;20463;-76
2023/05/20 04:08:31;;;;;;;12.38;6.68;;;17.10;69.80;;;;;;6005961;29;20058;-75
2023/05/20 04:11:44;;;;;;;21.88;6.63;;;17.10;69.70;;;;;;5982513;29;20058;-75
2023/05/20 04:14:54;;;;;;;10.27;6.55;;;17.10;69.70;;;;;;5983622;29;20450;-75
2023/05/20 04:18:05;;;;;;;16.77;7.30;;;17.10;69.60;;;;;;5966705;29;20042;-75
2023/05/20 04:21:14;;;;;;;15.25;6.07;;;17.30;69.60;;;;;;5996773;29;20121;-73
2023/05/20 04:24:25;;;;;;;11.80;6.25;;;17.20;69.60;;;;;;5981719;29;20090;-73
2023/05/20 04:27:36;;;;;;;10.35;6.13;;;17.10;70.40;;;;;;5981659;29;20042;-76
2023/05/20 04:30:45;;;;;;;10.30;6.10;;;17.10;69.50;;;;;;5983444;29;20041;-74
2023/05/20 04:33:52;;;;;;;11.52;6.55;;;17.10;69.50;;;;;;5981612;29;20038;-73
2023/05/20 04:37:00;;;;;;;11.68;6.38;;;17.00;69.50;;;;;;5982762;29;20128;-76
2023/05/20 04:40:11;;;;;;;12.13;6.25;;;17.00;69.60;;;;;;5981005;29;20125;-75
2023/05/20 04:43:18;;;;;;;14.82;6.75;;;17.00;69.50;;;;;;5981029;29;20046;-74
2023/05/20 04:46:27;;;;;;;9.93;6.35;;;17.00;69.50;;;;;;5981233;29;20095;-74
2023/05/20 04:49:36;;;;;;;9.60;5.97;;;17.00;69.50;;;;;;5981196;29;20491;-74
2023/05/20 04:52:46;;;;;;;13.40;6.75;;;17.00;69.50;;;;;;5965802;29;20129;-74
2023/05/20 04:55:59;;;;;;;12.80;6.68;;;17.00;69.50;;;;;;5981606;29;20122;-75
2023/05/20 04:59:14;;;;;;;16.65;8.20;;;17.00;69.60;;;;;;5982058;29;20459;-75
2023/05/20 05:02:23;;;;;;;17.67;6.75;;;17.00;69.60;;;;;;5982747;29;20035;-75
2023/05/20 05:05:30;;;;;;;12.63;6.47;;;16.90;69.50;;;;;;5960113;29;20039;-75
2023/05/20 05:08:41;;;;;;;12.18;7.65;;;16.80;69.50;;;;;;5968755;29;20070;-77
2023/05/20 05:11:49;;;;;;;13.80;7.55;;;16.90;69.60;;;;;;5980462;29;20038;-73
2023/05/20 05:14:53;;;;;;;;;;;16.90;69.50;;;;;;5996157;29;20030;-74
2023/05/20 05:18:04;;;;;;;10.20;5.85;;;16.90;69.50;;;;;;5980388;29;19912;-74
2023/05/20 05:21:13;;;;;;;14.93;6.13;;;16.90;70.20;;;;;;5982069;29;20108;-74
2023/05/20 05:24:28;;;;;;;13.35;6.72;;;16.90;69.40;;;;;;5981803;29;20061;-75
2023/05/20 05:27:35;;;;;;;;;;;16.90;69.40;;;;;;5982896;29;20164;-75
2023/05/20 05:30:44;;;;;;;11.60;6.07;;;16.90;69.40;;;;;;5983472;29;19948;-76
2023/05/20 05:33:52;;;;;;;11.90;6.63;;;16.90;69.20;;;;;;5984703;29;20145;-74
2023/05/20 05:36:59;;;;;;;14.45;6.43;;;16.90;69.20;;;;;;5969847;29;20199;-74
2023/05/20 05:40:09;;;;;;;15.00;6.40;;;16.90;69.20;;;;;;5984736;29;20042;-76
2023/05/20 05:43:20;;;;;;;13.45;7.25;;;16.90;69.20;;;;;;5986080;29;20058;-75
2023/05/20 05:46:30;;;;;;;14.45;6.28;;;16.90;69.20;;;;;;5985855;29;20031;-75
2023/05/20 05:49:37;;;;;;;10.75;6.40;;;16.90;69.30;;;;;;5984339;29;20069;-74
2023/05/20 05:52:45;;;;;;;10.93;5.97;;;16.90;69.20;;;;;;5986071;29;20034;-74
2023/05/20 05:55:53;;;;;;;8.67;5.70;;;16.90;69.20;;;;;;5986267;29;20114;-74
2023/05/20 05:58:59;;;;;;;9.85;5.75;;;16.90;69.00;;;;;;5998523;29;20095;-75
2023/05/20 06:02:09;;;;;;;15.48;6.20;;;16.90;69.00;;;;;;5983928;29;20142;-75
2023/05/20 06:05:17;;;;;;;17.05;6.20;;;16.90;68.90;;;;;;5966345;29;20088;-76
2023/05/20 06:08:26;;;;;;;10.20;6.00;;;17.00;68.80;;;;;;5962718;29;20039;-76
2023/05/20 06:11:35;;;;;;;10.68;6.22;;;17.00;68.60;;;;;;5962793;29;20325;-74
2023/05/20 06:14:43;;;;;;;12.20;5.93;;;17.10;68.60;;;;;;5961427;29;20030;-74
2023/05/20 06:17:50;;;;;;;11.82;6.35;;;17.10;68.40;;;;;;5976276;29;20567;-76
2023/05/20 06:20:58;;;;;;;13.30;6.10;;;17.10;69.10;;;;;;5961410;29;20098;-75
2023/05/20 06:24:13;;;;;;;12.02;6.07;;;17.10;68.10;;;;;;5962779;29;20169;-75
2023/05/20 06:27:19;;;;;;;12.77;6.10;;;17.20;68.00;;;;;;5961536;29;20042;-75
2023/05/20 06:30:27;;;;;;;10.75;5.88;;;17.20;68.70;;;;;;5989085;29;20038;-75
2023/05/20 06:33:35;;;;;;;20.45;6.00;;;17.30;67.70;;;;;;5983656;29;20037;-76
2023/05/20 06:36:46;;;;;;;16.95;6.32;;;17.30;67.50;;;;;;5984865;29;20045;-75
2023/05/20 06:39:52;;;;;;;12.30;6.50;;;17.40;67.40;;;;;;5982392;29;20042;-76
2023/05/20 06:43:02;;;;;;;12.43;6.70;;;17.40;67.20;;;;;;5984140;29;20064;-74
2023/05/20 06:46:30;;;;;;;11.90;5.72;;;17.50;67.10;;;;;;5983572;29;20038;-75
2023/05/20 06:49:44;;;;;;;12.35;5.68;;;17.60;67.00;;;;;;5984326;29;20130;-75
2023/05/20 06:52:53;;;;;;;10.75;5.07;;;17.60;66.70;;;;;;5997768;29;20030;-74
2023/05/20 06:56:00;;;;;;;13.15;5.82;;;17.70;66.50;;;;;;5968348;29;20065;-76
2023/05/20 06:59:12;;;;;;;12.73;5.90;;;17.80;66.30;;;;;;5995782;29;20034;-75
2023/05/20 07:02:24;;;;;;;10.55;5.55;;;17.90;66.10;;;;;;5974897;29;20038;-75
2023/05/20 07:05:34;;;;;;;10.20;5.70;;;18.00;65.80;;;;;;5975299;29;20035;-75
2023/05/20 07:08:45;;;;;;;10.25;5.60;;;18.10;65.40;;;;;;5974399;29;20131;-74
2023/05/20 07:11:54;;;;;;;9.02;5.75;;;18.30;65.10;;;;;;5961214;29;20027;-74
2023/05/20 07:15:01;;;;;;;16.92;6.35;;;18.40;64.60;;;;;;5978245;29;20054;-73
2023/05/20 07:18:12;;;;;;;10.77;5.75;;;18.40;64.20;;;;;;5970854;29;20031;-74
2023/05/20 07:21:22;;;;;;;13.85;7.13;;;18.50;64.00;;;;;;5965700;29;20038;-74
2023/05/20 07:24:45;;;;;;;11.95;6.10;;;18.50;63.80;;;;;;5961935;29;20045;-75
2023/05/20 07:27:54;;;;;;;12.45;6.35;;;18.60;63.70;;;;;;5982463;29;20045;-74
2023/05/20 07:31:10;;;;;;;10.88;5.70;;;18.50;63.60;;;;;;5997683;29;20034;-75
2023/05/20 07:34:24;;;;;;;9.55;6.30;;;18.50;63.60;;;;;;5984160;29;20041;-75
2023/05/20 07:37:33;;;;;;;11.10;5.78;;;18.50;63.50;;;;;;5983809;29;20062;-76
2023/05/20 07:40:44;;;;;;;12.48;5.63;;;18.40;63.40;;;;;;5982558;29;20123;-76
2023/05/20 07:43:53;;;;;;;16.40;5.75;;;18.40;63.50;;;;;;5967147;29;20046;-76
2023/05/20 07:47:03;;;;;;;11.77;5.78;;;18.30;63.50;;;;;;5987476;29;20041;-76
2023/05/20 07:50:10;;;;;;;12.13;5.93;;;18.30;63.60;;;;;;5985343;29;20196;-75
2023/05/20 07:53:20;;;;;;;11.70;6.10;;;18.30;63.60;;;;;;5983125;29;20087;-76
2023/05/20 07:56:30;;;;;;;10.70;6.15;;;18.30;63.70;;;;;;5984055;29;20029;-76
2023/05/20 07:59:37;;;;;;;12.43;6.10;;;18.30;63.70;;;;;;5982095;29;20075;-75
2023/05/20 08:02:45;;;;;;;18.50;6.35;;;18.30;63.70;;;;;;5983699;29;20034;-75
2023/05/20 08:05:54;;;;;;;12.40;6.43;;;18.40;63.60;;;;;;5984174;29;20130;-74
2023/05/20 08:09:02;;;;;;;13.85;7.03;;;18.40;63.50;;;;;;5997208;29;20120;-74
2023/05/20 08:12:20;;;;;;;13.52;6.43;;;18.50;63.30;;;;;;5983380;29;20113;-76
2023/05/20 08:15:30;;;;;;;12.77;6.93;;;18.50;63.20;;;;;;5983427;29;20026;-78
2023/05/20 08:18:37;;;;;;;15.70;7.50;;;18.50;63.10;;;;;;5996843;29;20038;-77
2023/05/20 08:21:47;;;;;;;13.40;6.50;;;18.60;63.00;;;;;;5983318;29;20034;-76
2023/05/20 08:25:03;;;;;;;10.82;6.40;;;18.60;63.90;;;;;;5983285;29;20148;-74
2023/05/20 08:28:16;;;;;;;13.55;7.30;;;18.60;62.90;;;;;;5981312;29;20034;-74
2023/05/20 08:31:27;;;;;;;16.77;7.53;;;18.60;62.90;;;;;;5983061;29;20113;-75
2023/05/20 08:34:37;;;;;;;16.25;8.07;;;18.60;62.90;;;;;;5996417;29;20041;-73
2023/05/20 08:37:43;;;;;;;12.20;7.35;;;18.60;62.80;;;;;;5983149;29;20192;-75
2023/05/20 08:41:00;;;;;;;12.38;6.75;;;18.70;62.90;;;;;;5982960;29;20031;-74
2023/05/20 08:44:10;;;;;;;;;;;18.70;62.80;;;;;;5996520;29;20199;-75
2023/05/20 08:47:24;;;;;;;14.27;6.97;;;18.70;62.70;;;;;;5995604;29;19917;-76
2023/05/20 08:50:34;;;;;;;16.35;7.07;;;18.80;62.20;;;;;;5996485;29;20084;-76
2023/05/20 08:53:41;;;;;;;12.77;6.68;;;18.80;61.90;;;;;;5966320;29;20065;-75
2023/05/20 08:56:49;;;;;;;13.10;6.97;;;18.90;61.90;;;;;;5982378;29;20031;-75
2023/05/20 08:59:56;;;;;;;10.75;6.35;;;18.90;61.40;;;;;;5981155;29;20061;-76
2023/05/20 09:03:07;;;;;;;15.25;7.15;;;19.00;61.20;;;;;;5982473;29;20034;-76
2023/05/20 09:06:20;;;;;;;14.57;6.75;;;19.00;60.90;;;;;;5996201;29;20065;-74
2023/05/20 09:09:25;;;;;;;20.27;7.93;;;19.10;60.70;;;;;;5980851;29;20061;-75
2023/05/20 09:12:33;;;;;;;16.08;7.25;;;19.10;60.50;;;;;;5995938;29;20030;-75
2023/05/20 09:15:41;;;;;;;12.20;7.18;;;19.20;60.40;;;;;;5982718;29;20487;-75
2023/05/20 09:18:51;;;;;;;16.15;8.02;;;19.30;60.20;;;;;;5982804;29;20044;-75
2023/05/20 09:21:57;;;;;;;13.05;6.70;;;19.40;60.00;;;;;;5967048;29;20030;-75
2023/05/20 09:25:05;;;;;;;15.98;7.38;;;19.50;59.60;;;;;;5982896;29;20121;-75
2023/05/20 09:28:12;;;;;;;13.07;7.70;;;19.60;59.40;;;;;;5982482;29;20099;-76
2023/05/20 09:31:21;;;;;;;17.35;8.60;;;19.60;59.30;;;;;;5981381;29;20037;-75
2023/05/20 09:34:29;;;;;;;23.63;6.95;;;19.80;59.20;;;;;;5980811;29;20061;-74
2023/05/20 09:37:36;;;;;;;15.05;8.25;;;19.80;58.90;;;;;;5965685;29;20071;-76
2023/05/20 09:40:45;;;;;;;13.55;7.28;;;19.90;58.80;;;;;;5982351;29;20031;-76
2023/05/20 09:43:54;;;;;;;14.82;7.15;;;20.00;58.60;;;;;;5982655;29;20042;-75
2023/05/20 09:47:09;;;;;;;12.23;7.50;;;20.10;58.90;;;;;;5981132;29;20034;-75
2023/05/20 09:50:19;;;;;;;15.23;8.02;;;20.30;58.10;;;;;;5980440;29;20042;-76
2023/05/20 09:53:29;;;;;;;17.47;7.97;;;20.50;57.80;;;;;;6014341;29;20455;-74
2023/05/20 09:56:36;;;;;;;14.20;7.15;;;20.70;57.50;;;;;;6005050;29;20303;-75
2023/05/20 09:59:46;;;;;;;13.63;7.57;;;20.90;57.00;;;;;;6018882;29;20038;-77
2023/05/20 10:02:55;;;;;;;12.13;7.38;;;20.90;56.60;;;;;;6003680;29;20041;-77
2023/05/20 10:06:13;;;;;;;15.55;7.75;;;21.00;56.40;;;;;;6003915;29;20546;-76
2023/05/20 10:09:23;;;;;;;13.98;7.63;;;21.00;56.40;;;;;;6003985;29;20038;-74
2023/05/20 10:12:49;;;;;;;18.20;7.97;;;21.10;56.10;;;;;;6005999;29;20041;-75
2023/05/20 10:16:28;;;;;;;16.45;8.30;;;21.10;56.00;;;;;;5991782;29;20035;-75
2023/05/20 10:19:36;;;;;;;14.00;7.47;;;21.10;56.00;;;;;;5988397;29;20031;-77
2023/05/20 10:22:44;;;;;;;16.13;7.78;;;21.20;55.70;;;;;;5985552;29;20062;-76
2023/05/20 10:25:55;;;;;;;19.40;7.45;;;21.20;55.60;;;;;;5986674;29;20034;-77
2023/05/20 10:29:09;;;;;;;15.90;7.32;;;21.40;55.20;;;;;;5986759;29;20034;-77
2023/05/20 10:32:36;;;;;;;11.88;6.50;;;21.50;54.80;;;;;;5984305;29;20078;-75
2023/05/20 10:35:55;;;;;;;15.63;7.18;;;21.60;54.40;;;;;;5984322;29;20412;-76
2023/05/20 10:39:03;;;;;;;16.30;6.85;;;21.70;54.20;;;;;;5999419;29;20034;-76
2023/05/20 10:42:16;;;;;;;13.80;7.28;;;21.70;53.90;;;;;;5968985;29;20040;-76
2023/05/20 10:45:31;;;;;;;11.10;6.70;;;21.70;54.00;;;;;;5984282;29;20061;-76
2023/05/20 10:48:45;;;;;;;11.27;6.47;;;21.70;53.90;;;;;;5983638;29;20038;-74
2023/05/20 10:51:51;;;;;;;11.32;6.35;;;21.70;53.80;;;;;;5983757;29;20035;-76
2023/05/20 10:55:01;;;;;;;9.32;5.35;;;21.90;53.60;;;;;;5983390;29;20106;-79
2023/05/20 10:58:12;;;;;;;9.75;6.22;;;22.10;53.20;;;;;;5985014;29;20043;-77
2023/05/20 11:01:23;;;;;;;13.93;6.20;;;22.20;52.80;;;;;;5984890;29;20121;-77
2023/05/20 11:04:35;;;;;;;8.73;5.32;;;22.40;52.40;;;;;;5984945;29;20424;-75
2023/05/20 11:07:44;;;;;;;9.35;5.60;;;22.60;52.00;;;;;;5983203;29;20065;-74
2023/05/20 11:10:53;;;;;;;11.27;5.97;;;23.00;51.50;;;;;;5999049;29;20117;-77
2023/05/20 11:13:59;;;;;;;8.30;5.18;;;23.40;50.70;;;;;;5988200;29;20031;-74
2023/05/20 11:17:09;;;;;;;5.80;4.25;;;23.50;49.80;;;;;;5989797;29;20034;-76
2023/05/20 11:20:17;;;;;;;9.93;4.93;;;23.60;49.40;;;;;;6013996;29;20085;-76
2023/05/20 11:23:26;;;;;;;13.97;4.30;;;23.60;49.10;;;;;;5990008;29;20117;-75
2023/05/20 11:26:32;;;;;;;10.32;4.65;;;23.50;48.90;;;;;;5983053;29;20058;-76
2023/05/20 11:29:42;;;;;;;6.93;3.90;;;23.40;48.80;;;;;;5983629;29;20034;-76
2023/05/20 11:33:03;;;;;;;7.43;4.28;;;23.30;49.00;;;;;;5998597;29;20042;-77
2023/05/20 11:36:14;;;;;;;7.00;4.35;;;23.30;48.90;;;;;;5969352;29;20062;-79
2023/05/20 11:39:28;;;;;;;10.10;4.72;;;23.40;48.70;;;;;;5997995;29;20045;-75
2023/05/20 11:42:36;;;;;;;6.20;3.97;;;23.50;48.20;;;;;;5966584;29;20046;-77
2023/05/20 11:45:55;;;;;;;8.73;4.95;;;23.50;48.10;;;;;;5975191;29;20177;-76
2023/05/20 11:49:02;;;;;;;6.55;4.47;;;23.60;47.70;;;;;;5962433;29;20054;-76
2023/05/20 11:52:18;;;;;;;8.38;4.60;;;23.60;47.20;;;;;;5979055;29;20088;-76
2023/05/20 11:55:30;;;;;;;14.25;5.50;;;23.60;47.30;;;;;;6000520;29;20053;-75
2023/05/20 11:58:46;;;;;;;8.10;4.70;;;23.60;47.30;;;;;;5982609;29;20045;-75
2023/05/20 12:01:57;;;;;;;11.68;4.47;;;23.50;47.30;;;;;;5982844;29;20042;-76
2023/05/20 12:05:10;;;;;;;13.98;4.75;;;23.50;47.20;;;;;;5982711;29;20042;-76
2023/05/20 12:08:18;;;;;;;8.38;4.63;;;23.60;47.00;;;;;;5983215;29;20064;-74
2023/05/20 12:11:28;;;;;;;8.23;4.82;;;23.40;46.80;;;;;;5997398;29;20034;-75
2023/05/20 12:14:33;;;;;;;6.57;4.50;;;23.30;46.80;;;;;;5997771;29;20030;-75
2023/05/20 12:17:52;;;;;;;11.20;5.13;;;23.10;46.80;;;;;;5982527;29;20409;-75
2023/05/20 12:21:01;;;;;;;7.18;4.80;;;23.00;47.30;;;;;;5967291;29;20037;-75
2023/05/20 12:24:10;;;;;;;11.82;5.35;;;23.00;47.40;;;;;;5982070;29;20096;-77
2023/05/20 12:27:19;;;;;;;8.25;4.57;;;23.00;47.50;;;;;;5982282;29;20390;-75
2023/05/20 12:30:29;;;;;;;8.40;5.00;;;23.00;47.70;;;;;;5996870;29;20038;-76
2023/05/20 12:33:38;;;;;;;7.25;4.85;;;22.90;47.60;;;;;;5966746;29;20426;-75
2023/05/20 12:36:50;;;;;;;9.95;4.85;;;23.00;47.60;;;;;;5979967;29;20038;-77
2023/05/20 12:40:07;;;;;;;23.70;5.07;;;23.00;47.70;;;;;;5944823;29;20057;-75
2023/05/20 12:43:14;;;;;;;8.90;5.10;;;23.00;47.70;;;;;;5960711;29;20038;-74
2023/05/20 12:46:22;;;;;;;8.27;4.72;;;23.00;47.70;;;;;;5960243;29;20039;-78
2023/05/20 12:49:32;;;;;;;9.23;4.90;;;23.10;47.60;;;;;;5958854;29;20039;-75
2023/05/20 12:52:44;;;;;;;7.43;4.78;;;23.20;47.50;;;;;;5961471;29;20033;-77
2023/05/20 12:55:50;;;;;;;9.00;5.10;;;23.30;47.20;;;;;;5960400;29;20136;-76
2023/05/20 12:58:58;;;;;;;9.50;5.45;;;23.60;46.70;;;;;;5979244;29;20031;-75
2023/05/20 13:02:05;;;;;;;;;;;23.70;46.40;;;;;;5964936;29;20062;-76
2023/05/20 13:05:11;;;;;;;8.15;5.53;;;23.70;46.40;;;;;;5980117;29;19956;-78
2023/05/20 13:08:20;;;;;;;9.17;5.00;;;23.60;46.50;;;;;;5961687;29;20058;-76
2023/05/20 13:11:30;;;;;;;7.40;5.22;;;23.40;46.80;;;;;;5960368;29;20092;-76
2023/05/20 13:14:36;;;;;;;10.75;5.15;;;23.20;47.10;;;;;;5959929;29;20023;-76
2023/05/20 13:17:44;;;;;;;7.40;4.75;;;23.10;47.30;;;;;;5958776;29;20030;-74
2023/05/20 13:20:52;;;;;;;8.02;5.38;;;23.00;47.40;;;;;;5957899;29;20039;-75
2023/05/20 13:24:00;;;;;;;8.63;4.72;;;22.90;47.50;;;;;;5959940;29;20039;-76
2023/05/20 13:27:09;;;;;;;13.13;5.20;;;22.90;47.60;;;;;;5960200;29;20029;-74
2023/05/20 13:30:17;;;;;;;9.45;4.35;;;22.80;47.60;;;;;;5971556;29;20146;-75
2023/05/20 13:33:25;;;;;;;11.45;4.90;;;22.70;47.80;;;;;;5980955;29;20042;-77
2023/05/20 13:36:31;;;;;;;12.15;5.15;;;22.60;48.00;;;;;;5982804;29;20030;-75
2023/05/20 13:39:36;;;;;;;13.27;5.13;;;22.50;48.20;;;;;;5996156;29;20031;-78
2023/05/20 13:42:42;;;;;;;12.15;6.15;;;22.50;48.40;;;;;;5981652;29;20050;-77
2023/05/20 13:45:50;;;;;;;6.93;4.40;;;22.50;48.40;;;;;;5981127;29;20052;-76
2023/05/20 13:48:59;;;;;;;10.15;4.38;;;22.50;48.50;;;;;;5981331;29;20041;-77
2023/05/20 13:52:08;;;;;;;11.07;4.63;;;22.50;48.50;;;;;;5985506;29;20042;-76
2023/05/20 13:55:17;;;;;;;7.85;4.20;;;22.50;48.40;;;;;;5986577;29;20117;-75
2023/05/20 13:58:25;;;;;;;7.45;4.68;;;22.50;48.40;;;;;;5986607;29;20372;-77
2023/05/20 14:01:35;;;;;;;9.50;5.03;;;22.50;48.40;;;;;;5984797;29;20042;-76
2023/05/20 14:04:43;;;;;;;7.15;5.13;;;22.50;48.40;;;;;;5986337;29;20133;-76
2023/05/20 14:07:53;;;;;;;8.00;4.75;;;22.50;48.30;;;;;;5986316;29;20034;-75
2023/05/20 14:11:00;;;;;;;8.40;4.32;;;22.50;48.30;;;;;;5986018;29;20540;-75
2023/05/20 14:14:16;;;;;;;12.93;5.32;;;22.60;48.30;;;;;;5984922;29;20050;-77
2023/05/20 14:17:29;;;;;;;9.80;5.47;;;22.60;48.40;;;;;;5999467;29;20288;-75
2023/05/20 14:20:36;;;;;;;7.57;5.07;;;22.60;48.40;;;;;;5984453;29;20041;-76
2023/05/20 14:23:45;;;;;;;9.52;4.78;;;22.60;48.40;;;;;;5970140;29;20129;-75
2023/05/20 14:26:51;;;;;;;9.20;4.97;;;22.60;48.40;;;;;;5987076;29;20042;-75
2023/05/20 14:29:57;;;;;;;8.93;5.07;;;22.60;48.40;;;;;;5987604;29;20089;-74
2023/05/20 14:33:06;;;;;;;9.50;4.88;;;22.60;48.30;;;;;;5978477;29;20031;-75
2023/05/20 14:36:14;;;;;;;11.82;5.40;;;22.50;48.40;;;;;;5964010;29;20031;-75
2023/05/20 14:39:20;;;;;;;7.88;5.05;;;22.50;48.60;;;;;;5962685;29;20050;-75
2023/05/20 14:42:30;;;;;;;6.85;4.78;;;22.40;48.60;;;;;;5977318;29;20051;-75
2023/05/20 14:45:39;;;;;;;7.30;5.28;;;22.40;48.60;;;;;;5962631;29;20483;-75
2023/05/20 14:48:49;;;;;;;7.13;4.53;;;22.50;48.60;;;;;;5963378;29;20042;-77
2023/05/20 14:51:58;;;;;;;10.88;4.75;;;22.50;48.40;;;;;;5974096;29;20184;-77
2023/05/20 14:55:07;;;;;;;11.00;4.90;;;22.40;48.50;;;;;;5975213;29;20041;-76
2023/05/20 14:58:13;;;;;;;6.13;4.40;;;22.40;48.60;;;;;;5989943;29;20046;-76
2023/05/20 15:01:21;;;;;;;8.68;4.20;;;22.40;48.70;;;;;;6002321;29;20042;-76
2023/05/20 15:04:29;;;;;;;10.88;5.32;;;22.30;48.60;;;;;;5986799;29;20034;-77
2023/05/20 15:07:41;;;;;;;11.48;5.03;;;22.30;48.70;;;;;;5986127;29;20662;-78
2023/05/20 15:10:49;;;;;;;6.43;4.35;;;22.30;48.70;;;;;;5984195;29;20098;-74
2023/05/20 15:13:56;;;;;;;6.22;4.35;;;22.30;48.70;;;;;;5985571;29;20035;-74
2023/05/20 15:17:00;;;;;;;;;;;22.30;48.80;;;;;;5983880;29;20042;-76
2023/05/20 15:20:10;;;;;;;8.45;3.95;;;22.30;49.40;;;;;;5998842;29;19920;-76
2023/05/20 15:23:16;;;;;;;;;;;22.30;48.80;;;;;;5984137;29;20069;-73
2023/05/20 15:26:25;;;;;;;7.25;4.55;;;22.20;48.90;;;;;;5989711;29;19924;-76
2023/05/20 15:29:31;;;;;;;;;;;22.20;48.90;;;;;;5975718;29;20043;-73
2023/05/20 15:32:34;;;;;;;9.25;4.65;;;22.10;49.10;;;;;;5981137;29;19928;-76
2023/05/20 15:35:42;;;;;;;10.02;4.28;;;22.10;49.10;;;;;;5983449;29;20123;-76
2023/05/20 15:38:50;;;;;;;11.77;5.07;;;22.00;49.30;;;;;;5984465;29;20070;-74
2023/05/20 15:41:58;;;;;;;7.53;4.82;;;21.90;49.50;;;;;;5982885;29;20356;-78
2023/05/20 15:45:08;;;;;;;13.88;4.60;;;21.80;49.60;;;;;;5982822;29;20049;-75
2023/05/20 15:48:14;;;;;;;8.82;5.18;;;22.00;49.80;;;;;;5968140;29;20039;-75
2023/05/20 15:51:20;;;;;;;8.10;4.32;;;21.80;49.70;;;;;;5984163;29;20037;-74
2023/05/20 15:54:27;;;;;;;6.65;4.20;;;21.80;49.70;;;;;;5984304;29;20073;-76
2023/05/20 15:57:35;;;;;;;7.47;4.20;;;21.70;49.70;;;;;;5982694;29;20091;-72
2023/05/20 16:00:42;;;;;;;8.40;4.38;;;21.70;49.70;;;;;;5968524;29;20491;-74
2023/05/20 16:03:48;;;;;;;6.78;4.50;;;21.70;49.90;;;;;;5983005;29;20046;-74
2023/05/20 16:06:56;;;;;;;9.98;4.45;;;21.70;49.90;;;;;;5984518;29;20053;-75
2023/05/20 16:10:05;;;;;;;14.23;4.18;;;21.70;50.00;;;;;;5983630;29;20076;-74
2023/05/20 16:13:09;;;;;;;10.18;4.65;;;21.70;50.00;;;;;;5983504;29;20026;-76
2023/05/20 16:16:20;;;;;;;5.63;4.15;;;21.70;50.10;;;;;;5986379;29;20160;-75
2023/05/20 16:19:30;;;;;;;13.25;4.75;;;21.60;50.20;;;;;;5984193;29;20038;-74